Un Karadeniz — TCTD3 — position and weather

sailwx.info

Track history (hours):
 
Tides and Currents Weather Stations Pressure Air Temp Water Temp Dewpoint Dewpoint Depression Visibility Wind Speed Wind Dir Waves Ship Positions

Un Karadeniz

Last reported at 2016-Jul-30 21:17 UTC. Time now 2016-Jul-31 00:18 UTC.
Position N 39°16' E 019°21'.

Length 193 m; draft 7 m.

Type: Ship (hazmat cat A). MMSI: 271002571.

Date/timePositionNaut miles runAvg speedWind from/ knotsBaromVisibWave heightAir tempDewpointWater temp
2016-Jul-30 21:17N 39°16' E 019°21'19319.3
2016-Jul-30 11:18N 41°43' E 016°37'5818.4
2016-Jul-30 08:08N 42°29' E 015°48'7119.7
2016-Jul-30 04:33N 43°24' E 014°49'2019.6
2016-Jul-30 03:33N 43°40' E 014°32'1919.4
2016-Jul-30 02:33N 43°55' E 014°16'1919.3
2016-Jul-30 01:33N 44°10' E 013°60'1919.4
2016-Jul-30 00:33N 44°27' E 013°46'1919.5
2016-Jul-29 23:33N 44°43' E 013°31'2019.7
2016-Jul-29 22:33N 44°60' E 013°16'1919.4
2016-Jul-29 21:33N 45°17' E 013°04'1818.0
2016-Jul-29 20:34N 45°32' E 013°19'1818.2
2016-Jul-29 19:33N 45°39' E 013°43'1 1.5
2016-Jul-29 18:33N 45°39' E 013°45'0 0.0
2016-Jul-29 17:33N 45°39' E 013°45'0 0.0
2016-Jul-29 16:33N 45°39' E 013°45'31 4.2
2016-Jul-29 09:14N 45°16' E 013°15'1319.7
2016-Jul-29 08:33N 45°03' E 013°21'1919.5
2016-Jul-29 07:33N 44°46' E 013°34'1919.4
2016-Jul-29 06:34N 44°29' E 013°49'2119.5
2016-Jul-29 05:28N 44°12' E 014°05'31219.6
2016-Jul-28 13:32N 40°12' E 018°34'2820.0
2016-Jul-28 12:08N 39°48' E 018°54'28517.9
2016-Jul-27 20:14N 36°36' E 023°22'1820.2
2016-Jul-27 19:22N 36°51' E 023°34'2220.5
2016-Jul-27 18:16N 37°09' E 023°50'1520.3
2016-Jul-27 17:33N 37°21' E 024°00'2720.3
2016-Jul-27 16:13N 37°43' E 024°20'1419.7
2016-Jul-27 15:32N 37°53' E 024°31'26218.2
2016-Jul-27 01:06N 40°55' E 028°36'6 1.5
2016-Jul-26 21:19N 40°56' E 028°43'1620.3
2016-Jul-26 20:32N 40°50' E 029°03'1010.5
2016-Jul-26 19:33N 40°51' E 029°16'0 0.0
2016-Jul-26 18:33N 40°51' E 029°16'0 0.0
2016-Jul-26 17:33N 40°51' E 029°16'0 0.0
2016-Jul-26 16:33N 40°51' E 029°16'0 0.0
2016-Jul-26 15:33N 40°51' E 029°16'0 0.0
2016-Jul-26 14:33N 40°51' E 029°16'0 0.0
2016-Jul-26 10:33N 40°51' E 029°16'0 0.0
2016-Jul-26 09:33N 40°51' E 029°16'0 0.0
2016-Jul-26 08:33N 40°51' E 029°16'0 0.0
2016-Jul-26 07:33N 40°51' E 029°16'0 0.0
2016-Jul-26 06:33N 40°51' E 029°16'0 0.0
2016-Jul-26 05:33N 40°51' E 029°16'0 0.0
2016-Jul-26 04:33N 40°51' E 029°16'0 0.0
2016-Jul-26 03:33N 40°51' E 029°16'0 0.0
2016-Jul-26 02:33N 40°51' E 029°16'0 0.0
2016-Jul-26 01:33N 40°51' E 029°16'0 0.0
2016-Jul-26 00:33N 40°51' E 029°16'0 0.0
2016-Jul-25 23:33N 40°51' E 029°16'0 0.0
2016-Jul-25 22:34N 40°51' E 029°16'0 0.0
2016-Jul-25 21:33N 40°51' E 029°16'0 0.0
2016-Jul-25 20:33N 40°51' E 029°16'0 0.0
2016-Jul-25 19:33N 40°51' E 029°16'0 0.0
2016-Jul-25 18:33N 40°51' E 029°16'0 0.0
2016-Jul-25 17:33N 40°51' E 029°16'0 0.0
2016-Jul-25 16:33N 40°51' E 029°16'15810.4
2016-Jul-25 01:27N 39°58' E 026°01'2418.2
2016-Jul-25 00:08N 39°38' E 025°46'3218.8
2016-Jul-24 22:27N 39°09' E 025°27'7918.8
2016-Jul-24 18:13N 37°59' E 024°40'1218.5
2016-Jul-24 17:33N 37°48' E 024°32'2118.3
2016-Jul-24 16:23N 37°30' E 024°18'1618.5
2016-Jul-24 15:32N 37°18' E 024°06'1818.2
2016-Jul-24 14:33N 37°04' E 023°52'1919.0
2016-Jul-24 13:33N 36°49' E 023°36'2218.9
2016-Jul-24 12:23N 36°32' E 023°19'58618.4
2016-Jul-23 04:29N 43°39' E 014°33'1819.4
2016-Jul-23 03:33N 43°53' E 014°18'1919.5
2016-Jul-23 02:33N 44°09' E 014°01'1919.2
2016-Jul-23 01:33N 44°25' E 013°47'1919.0
2016-Jul-23 00:33N 44°41' E 013°32'1919.1
2016-Jul-22 23:33N 44°57' E 013°18'1919.1
2016-Jul-22 22:33N 45°15' E 013°07'1716.5
2016-Jul-22 21:33N 45°30' E 013°17'1818.2
2016-Jul-22 20:33N 45°39' E 013°39'4 4.2
2016-Jul-22 19:33N 45°39' E 013°45'0 0.0
2016-Jul-22 18:33N 45°39' E 013°45'0 0.0
2016-Jul-22 17:33N 45°39' E 013°45'0 0.0
2016-Jul-22 16:33N 45°39' E 013°45'0 0.0
2016-Jul-22 15:33N 45°39' E 013°45'0 0.0
2016-Jul-22 14:33N 45°39' E 013°45'0 0.0
2016-Jul-22 13:31N 45°39' E 013°45'2010.3
2016-Jul-22 11:33N 45°28' E 013°20'1818.2
2016-Jul-22 10:33N 45°10' E 013°19'2020.4
2016-Jul-22 09:33N 44°51' E 013°30'2120.5
2016-Jul-22 08:33N 44°33' E 013°45'2020.5
2016-Jul-22 07:33N 44°16' E 014°01'4120.5
2016-Jul-22 05:33N 43°43' E 014°35'2120.7
2016-Jul-22 04:33N 43°28' E 014°53'2020.2
2016-Jul-22 03:33N 43°12' E 015°11'2020.2
2016-Jul-22 02:34N 42°56' E 015°28'2020.0
2016-Jul-22 01:33N 42°41' E 015°46'2019.9
2016-Jul-22 00:33N 42°25' E 016°02'2019.7
2016-Jul-21 23:33N 42°10' E 016°20'  
Track history (hours):
 
Tides and Currents Weather Stations Pressure Air Temp Water Temp Dewpoint Dewpoint Depression Visibility Wind Speed Wind Dir Waves Ship Positions

Un Karadeniz

Last reported at 2016-Jul-30 21:17 UTC. Time now 2016-Jul-31 00:18 UTC.
Position N 39°16' E 019°21'.

Length 193 m; draft 7 m.

Type: Ship (hazmat cat A). MMSI: 271002571.

Date/timePositionNaut miles runAvg speedWind from/ knotsBaromVisibWave heightAir tempDewpointWater temp
2016-Jul-30 21:17N 39°16' E 019°21'19319.3
2016-Jul-30 11:18N 41°43' E 016°37'5818.4
2016-Jul-30 08:08N 42°29' E 015°48'7119.7
2016-Jul-30 04:33N 43°24' E 014°49'2019.6
2016-Jul-30 03:33N 43°40' E 014°32'1919.4
2016-Jul-30 02:33N 43°55' E 014°16'1919.3
2016-Jul-30 01:33N 44°10' E 013°60'1919.4
2016-Jul-30 00:33N 44°27' E 013°46'1919.5
2016-Jul-29 23:33N 44°43' E 013°31'2019.7
2016-Jul-29 22:33N 44°60' E 013°16'1919.4
2016-Jul-29 21:33N 45°17' E 013°04'1818.0
2016-Jul-29 20:34N 45°32' E 013°19'1818.2
2016-Jul-29 19:33N 45°39' E 013°43'1 1.5
2016-Jul-29 18:33N 45°39' E 013°45'0 0.0
2016-Jul-29 17:33N 45°39' E 013°45'0 0.0
2016-Jul-29 16:33N 45°39' E 013°45'31 4.2
2016-Jul-29 09:14N 45°16' E 013°15'1319.7
2016-Jul-29 08:33N 45°03' E 013°21'1919.5
2016-Jul-29 07:33N 44°46' E 013°34'1919.4
2016-Jul-29 06:34N 44°29' E 013°49'2119.5
2016-Jul-29 05:28N 44°12' E 014°05'31219.6
2016-Jul-28 13:32N 40°12' E 018°34'2820.0
2016-Jul-28 12:08N 39°48' E 018°54'28517.9
2016-Jul-27 20:14N 36°36' E 023°22'1820.2
2016-Jul-27 19:22N 36°51' E 023°34'2220.5
2016-Jul-27 18:16N 37°09' E 023°50'1520.3
2016-Jul-27 17:33N 37°21' E 024°00'2720.3
2016-Jul-27 16:13N 37°43' E 024°20'1419.7
2016-Jul-27 15:32N 37°53' E 024°31'26218.2
2016-Jul-27 01:06N 40°55' E 028°36'6 1.5
2016-Jul-26 21:19N 40°56' E 028°43'1620.3
2016-Jul-26 20:32N 40°50' E 029°03'1010.5
2016-Jul-26 19:33N 40°51' E 029°16'0 0.0
2016-Jul-26 18:33N 40°51' E 029°16'0 0.0
2016-Jul-26 17:33N 40°51' E 029°16'0 0.0
2016-Jul-26 16:33N 40°51' E 029°16'0 0.0
2016-Jul-26 15:33N 40°51' E 029°16'0 0.0
2016-Jul-26 14:33N 40°51' E 029°16'0 0.0
2016-Jul-26 10:33N 40°51' E 029°16'0 0.0
2016-Jul-26 09:33N 40°51' E 029°16'0 0.0
2016-Jul-26 08:33N 40°51' E 029°16'0 0.0
2016-Jul-26 07:33N 40°51' E 029°16'0 0.0
2016-Jul-26 06:33N 40°51' E 029°16'0 0.0
2016-Jul-26 05:33N 40°51' E 029°16'0 0.0
2016-Jul-26 04:33N 40°51' E 029°16'0 0.0
2016-Jul-26 03:33N 40°51' E 029°16'0 0.0
2016-Jul-26 02:33N 40°51' E 029°16'0 0.0
2016-Jul-26 01:33N 40°51' E 029°16'0 0.0
2016-Jul-26 00:33N 40°51' E 029°16'0 0.0
2016-Jul-25 23:33N 40°51' E 029°16'0 0.0
2016-Jul-25 22:34N 40°51' E 029°16'0 0.0
2016-Jul-25 21:33N 40°51' E 029°16'0 0.0
2016-Jul-25 20:33N 40°51' E 029°16'0 0.0
2016-Jul-25 19:33N 40°51' E 029°16'0 0.0
2016-Jul-25 18:33N 40°51' E 029°16'0 0.0
2016-Jul-25 17:33N 40°51' E 029°16'0 0.0
2016-Jul-25 16:33N 40°51' E 029°16'15810.4
2016-Jul-25 01:27N 39°58' E 026°01'2418.2
2016-Jul-25 00:08N 39°38' E 025°46'3218.8
2016-Jul-24 22:27N 39°09' E 025°27'7918.8
2016-Jul-24 18:13N 37°59' E 024°40'1218.5
2016-Jul-24 17:33N 37°48' E 024°32'2118.3
2016-Jul-24 16:23N 37°30' E 024°18'1618.5
2016-Jul-24 15:32N 37°18' E 024°06'1818.2
2016-Jul-24 14:33N 37°04' E 023°52'1919.0
2016-Jul-24 13:33N 36°49' E 023°36'2218.9
2016-Jul-24 12:23N 36°32' E 023°19'58618.4
2016-Jul-23 04:29N 43°39' E 014°33'1819.4
2016-Jul-23 03:33N 43°53' E 014°18'1919.5
2016-Jul-23 02:33N 44°09' E 014°01'1919.2
2016-Jul-23 01:33N 44°25' E 013°47'1919.0
2016-Jul-23 00:33N 44°41' E 013°32'1919.1
2016-Jul-22 23:33N 44°57' E 013°18'1919.1
2016-Jul-22 22:33N 45°15' E 013°07'1716.5
2016-Jul-22 21:33N 45°30' E 013°17'1818.2
2016-Jul-22 20:33N 45°39' E 013°39'4 4.2
2016-Jul-22 19:33N 45°39' E 013°45'0 0.0
2016-Jul-22 18:33N 45°39' E 013°45'0 0.0
2016-Jul-22 17:33N 45°39' E 013°45'0 0.0
2016-Jul-22 16:33N 45°39' E 013°45'0 0.0
2016-Jul-22 15:33N 45°39' E 013°45'0 0.0
2016-Jul-22 14:33N 45°39' E 013°45'0 0.0
2016-Jul-22 13:31N 45°39' E 013°45'2010.3
2016-Jul-22 11:33N 45°28' E 013°20'1818.2
2016-Jul-22 10:33N 45°10' E 013°19'2020.4
2016-Jul-22 09:33N 44°51' E 013°30'2120.5
2016-Jul-22 08:33N 44°33' E 013°45'2020.5
2016-Jul-22 07:33N 44°16' E 014°01'4120.5
2016-Jul-22 05:33N 43°43' E 014°35'2120.7
2016-Jul-22 04:33N 43°28' E 014°53'2020.2
2016-Jul-22 03:33N 43°12' E 015°11'2020.2
2016-Jul-22 02:34N 42°56' E 015°28'2020.0
2016-Jul-22 01:33N 42°41' E 015°46'2019.9
2016-Jul-22 00:33N 42°25' E 016°02'2019.7
2016-Jul-21 23:33N 42°10' E 016°20'  

Dump ship's entire track history